Time;durP1;ratioP1;P1;durP2;ratioP2;P2;SDS_P1;SDS_P2;PMS_P1;PMS_P2;Temp;Humidity;BMP_temperature;BMP_pressure;BME280_temperature;BME280_humidity;BME280_pressure;Samples;Min_cycle;Max_cycle;Signal;HPM_P1;HPM_P2
2022/07/07 00:01:44;;;;;;;;;;;15.90;99.90;;;;;;5068688;28;19913;-70
2022/07/07 00:04:10;;;;;;;;;;;15.70;99.90;;;;;;5074119;28;19904;-70
2022/07/07 00:06:35;;;;;;;;;;;15.70;99.90;;;;;;5073883;28;19994;-71
2022/07/07 00:09:01;;;;;;;;;;;15.70;99.90;;;;;;5074139;28;20344;-71
2022/07/07 00:11:27;;;;;;;;;;;15.80;99.90;;;;;;5061252;28;19931;-70
2022/07/07 00:13:53;;;;;;;;;;;15.70;99.90;;;;;;5053696;28;19988;-70
2022/07/07 00:16:18;;;;;;;;;;;15.70;99.90;;;;;;5053622;28;20017;-71
2022/07/07 00:18:44;;;;;;;;;;;15.80;99.90;;;;;;5054832;28;20038;-71
2022/07/07 00:21:10;;;;;;;;;;;15.80;99.90;;;;;;5070281;28;19937;-70
2022/07/07 00:23:35;;;;;;;;;;;15.80;99.90;;;;;;5080578;28;19911;-70
2022/07/07 00:26:01;;;;;;;;;;;15.90;99.90;;;;;;5080300;28;19904;-70
2022/07/07 00:28:27;;;;;;;;;;;15.90;99.90;;;;;;5080610;28;19908;-71
2022/07/07 00:30:52;;;;;;;;;;;15.80;99.90;;;;;;5079814;28;20344;-70
2022/07/07 00:33:18;;;;;;;;;;;15.80;99.90;;;;;;5064105;28;19909;-71
2022/07/07 00:35:43;;;;;;;;;;;15.70;99.90;;;;;;5060249;28;20007;-71
2022/07/07 00:38:09;;;;;;;;;;;15.50;99.90;;;;;;5060183;28;19988;-70
2022/07/07 00:40:35;;;;;;;;;;;15.40;99.90;;;;;;5064197;28;19969;-70
2022/07/07 00:43:00;;;;;;;;;;;15.40;99.90;;;;;;5080145;28;19930;-71
2022/07/07 00:45:26;;;;;;;;;;;15.40;99.90;;;;;;5080430;28;19988;-70
2022/07/07 00:47:52;;;;;;;;;;;15.40;99.90;;;;;;5080446;28;20311;-71
2022/07/07 00:50:18;;;;;;;;;;;15.40;99.90;;;;;;5078237;28;19908;-70
2022/07/07 00:52:43;;;;;;;;;;;15.40;99.90;;;;;;5060059;28;19905;-71
2022/07/07 00:55:09;;;;;;;;;;;15.40;99.90;;;;;;5060545;28;19919;-70
2022/07/07 00:57:35;;;;;;;;;;;15.40;99.90;;;;;;5060272;28;20000;-71
2022/07/07 01:00:03;;;;;;;;;;;15.40;99.90;;;;;;5058774;28;19948;-71
2022/07/07 01:02:30;;;;;;;;;;;15.40;99.90;;;;;;5079271;28;19915;-70
2022/07/07 01:04:56;;;;;;;;;;;15.50;99.90;;;;;;5079937;28;19904;-71
2022/07/07 01:07:22;;;;;;;;;;;15.50;99.90;;;;;;5080002;28;20423;-71
2022/07/07 01:09:47;;;;;;;;;;;15.50;99.90;;;;;;5080223;28;19951;-71
2022/07/07 01:12:13;;;;;;;;;;;15.40;99.90;;;;;;5062658;28;20007;-71
2022/07/07 01:14:38;;;;;;;;;;;15.30;99.90;;;;;;5059726;28;19909;-71
2022/07/07 01:17:04;;;;;;;;;;;15.20;99.90;;;;;;5058584;28;19905;-71
2022/07/07 01:19:29;;;;;;;;;;;15.00;99.90;;;;;;5067271;28;19916;-71
2022/07/07 01:21:57;;;;;;;;;;;14.90;99.90;;;;;;5079806;28;19904;-71
2022/07/07 01:24:24;;;;;;;;;;;14.80;99.90;;;;;;5079896;28;19905;-70
2022/07/07 01:26:50;;;;;;;;;;;14.80;99.90;;;;;;5079845;28;19904;-71
2022/07/07 01:29:16;;;;;;;;;;;14.70;99.90;;;;;;5074581;28;19909;-71
2022/07/07 01:31:41;;;;;;;;;;;14.70;99.90;;;;;;5056483;28;20383;-70
2022/07/07 01:34:07;;;;;;;;;;;14.80;99.90;;;;;;5056388;28;20396;-71
2022/07/07 01:36:32;;;;;;;;;;;14.80;99.90;;;;;;5056468;28;19908;-71
2022/07/07 01:38:58;;;;;;;;;;;14.80;99.90;;;;;;5058654;28;19916;-71
2022/07/07 01:41:23;;;;;;;;;;;14.70;99.90;;;;;;5076409;28;20041;-71
2022/07/07 01:43:49;;;;;;;;;;;14.80;99.90;;;;;;5076309;28;20466;-70
2022/07/07 01:46:14;;;;;;;;;;;14.80;99.90;;;;;;5076904;28;20313;-71
2022/07/07 01:48:40;;;;;;;;;;;14.80;99.90;;;;;;5076185;28;19904;-69
2022/07/07 01:51:06;;;;;;;;;;;14.90;99.90;;;;;;5057761;28;19908;-70
2022/07/07 01:53:31;;;;;;;;;;;14.90;99.90;;;;;;5056427;28;19905;-70
2022/07/07 01:56:02;;;;;;;;;;;14.90;99.90;;;;;;5056337;28;19924;-71
2022/07/07 01:58:27;;;;;;;;;;;14.90;99.90;;;;;;5056412;28;20299;-71
2022/07/07 02:00:53;;;;;;;;;;;14.90;99.90;;;;;;5073637;28;19914;-70
2022/07/07 02:03:18;;;;;;;;;;;14.90;99.90;;;;;;5075957;28;19904;-70
2022/07/07 02:05:44;;;;;;;;;;;14.90;99.90;;;;;;5076004;28;20257;-71
2022/07/07 02:08:09;;;;;;;;;;;14.80;99.90;;;;;;5075905;28;19904;-71
2022/07/07 02:13:19;;;;;;;;;;;14.40;99.90;;;;;;5075799;28;20443;-70
2022/07/07 02:15:45;;;;;;;;;;;14.30;99.90;;;;;;5075966;28;20003;-71
2022/07/07 02:18:10;;;;;;;;;;;14.20;99.90;;;;;;5075724;28;19951;-71
2022/07/07 02:20:36;;;;;;;;;;;14.20;99.90;;;;;;5075197;28;19954;-70
2022/07/07 02:23:01;;;;;;;;;;;14.10;99.90;;;;;;5075346;28;19915;-71
2022/07/07 02:25:27;;;;;;;;;;;14.20;99.90;;;;;;5075505;28;19915;-70
2022/07/07 02:27:53;;;;;;;;;;;14.20;99.90;;;;;;5075532;28;19938;-71
2022/07/07 02:30:18;;;;;;;;;;;14.20;99.90;;;;;;5062786;28;19908;-70
2022/07/07 02:32:44;;;;;;;;;;;14.20;99.90;;;;;;5055373;28;20368;-71
2022/07/07 02:35:09;;;;;;;;;;;14.30;99.90;;;;;;5053906;28;20387;-71
2022/07/07 02:37:36;;;;;;;;;;;14.30;99.90;;;;;;5055283;28;20380;-71
2022/07/07 02:40:02;;;;;;;;;;;14.30;99.90;;;;;;5064970;28;19935;-71
2022/07/07 02:42:27;;;;;;;;;;;14.40;99.90;;;;;;5075107;28;19994;-71
2022/07/07 02:44:53;;;;;;;;;;;14.40;99.90;;;;;;5075167;28;20367;-71
2022/07/07 02:47:18;;;;;;;;;;;14.40;99.90;;;;;;5075425;28;19905;-71
2022/07/07 02:49:44;;;;;;;;;;;14.40;99.90;;;;;;5067765;28;19909;-71
2022/07/07 02:52:09;;;;;;;;;;;14.40;99.90;;;;;;5055061;28;19905;-71
2022/07/07 02:54:35;;;;;;;;;;;14.30;99.90;;;;;;5054924;28;19912;-71
2022/07/07 02:57:01;;;;;;;;;;;14.30;99.90;;;;;;5054983;28;19905;-71
2022/07/07 02:59:26;;;;;;;;;;;14.30;99.90;;;;;;5059285;28;19916;-70
2022/07/07 03:01:52;;;;;;;;;;;14.30;99.90;;;;;;5074823;28;19904;-71
2022/07/07 03:04:17;;;;;;;;;;;14.30;99.90;;;;;;5074745;28;19931;-70
2022/07/07 03:06:43;;;;;;;;;;;14.40;99.90;;;;;;5075035;28;19905;-71
2022/07/07 03:09:08;;;;;;;;;;;14.40;99.90;;;;;;5105576;28;19905;-70
2022/07/07 03:11:34;;;;;;;;;;;14.40;99.90;;;;;;5053438;28;19908;-70
2022/07/07 03:13:59;;;;;;;;;;;14.40;99.90;;;;;;5054802;28;19912;-71
2022/07/07 03:16:25;;;;;;;;;;;14.40;99.90;;;;;;5054507;28;19956;-71
2022/07/07 03:18:50;;;;;;;;;;;14.30;99.90;;;;;;5054895;28;19905;-71
2022/07/07 03:21:16;;;;;;;;;;;14.20;99.90;;;;;;5073271;28;19955;-71
2022/07/07 03:23:41;;;;;;;;;;;14.10;99.90;;;;;;5074382;28;19904;-70
2022/07/07 03:26:07;;;;;;;;;;;14.10;99.90;;;;;;5074442;28;19912;-71
2022/07/07 03:28:32;;;;;;;;;;;14.00;99.90;;;;;;5074345;28;19954;-71
2022/07/07 03:30:58;;;;;;;;;;;14.00;99.90;;;;;;5058275;28;19909;-71
2022/07/07 03:33:24;;;;;;;;;;;14.10;99.90;;;;;;5053363;28;19909;-70
2022/07/07 03:35:49;;;;;;;;;;;14.10;99.90;;;;;;5073814;28;19912;-70
2022/07/07 03:38:15;;;;;;;;;;;14.20;99.90;;;;;;5074200;28;19904;-70
2022/07/07 03:40:40;;;;;;;;;;;14.20;99.90;;;;;;5073045;28;19916;-70
2022/07/07 03:43:06;;;;;;;;;;;14.20;99.90;;;;;;5073729;28;19990;-70
2022/07/07 03:45:31;;;;;;;;;;;14.30;99.90;;;;;;5073915;28;19904;-71
2022/07/07 03:47:57;;;;;;;;;;;14.30;99.90;;;;;;5073943;28;19931;-71
2022/07/07 03:50:22;;;;;;;;;;;14.20;99.90;;;;;;5073300;28;19909;-70
2022/07/07 03:52:48;;;;;;;;;;;14.30;99.90;;;;;;5074043;28;19904;-71
2022/07/07 03:55:13;;;;;;;;;;;14.20;99.90;;;;;;5073356;28;19912;-72
2022/07/07 03:57:41;;;;;;;;;;;14.10;99.90;;;;;;5073943;28;20360;-72
2022/07/07 04:00:06;;;;;;;;;;;14.10;99.90;;;;;;5065405;28;19909;-71
2022/07/07 04:02:32;;;;;;;;;;;14.00;99.90;;;;;;5053061;28;19915;-71
2022/07/07 04:04:58;;;;;;;;;;;14.00;99.90;;;;;;5052537;28;19908;-71
2022/07/07 04:07:23;;;;;;;;;;;14.00;99.90;;;;;;5054177;28;19905;-71
2022/07/07 04:09:49;;;;;;;;;;;14.00;99.90;;;;;;5059377;28;19915;-71
2022/07/07 04:12:14;;;;;;;;;;;14.00;99.90;;;;;;5074117;28;19912;-71
2022/07/07 04:14:40;;;;;;;;;;;14.10;99.90;;;;;;5073386;28;19908;-70
2022/07/07 04:17:06;;;;;;;;;;;14.10;99.90;;;;;;5074078;28;20046;-71
2022/07/07 04:19:31;;;;;;;;;;;14.10;99.90;;;;;;5070523;28;19908;-70
2022/07/07 04:21:57;;;;;;;;;;;14.10;99.90;;;;;;5053700;28;20276;-71
2022/07/07 04:24:22;;;;;;;;;;;14.20;99.90;;;;;;5053568;28;19997;-71
2022/07/07 04:26:48;;;;;;;;;;;14.20;99.90;;;;;;5052400;28;19909;-71
2022/07/07 04:29:14;;;;;;;;;;;14.10;99.90;;;;;;5053754;28;19912;-70
2022/07/07 04:31:44;;;;;;;;;;;14.20;99.90;;;;;;5073639;28;19904;-71
2022/07/07 04:34:10;;;;;;;;;;;14.20;99.90;;;;;;5105900;28;19912;-72
2022/07/07 04:36:36;;;;;;;;;;;14.20;99.90;;;;;;5073780;28;19908;-72
2022/07/07 04:39:02;;;;;;;;;;;14.30;99.90;;;;;;5073591;28;19983;-71
2022/07/07 04:41:27;;;;;;;;;;;14.40;99.90;;;;;;5054578;28;19920;-71
2022/07/07 04:43:53;;;;;;;;;;;14.40;99.90;;;;;;5053360;28;19905;-71
2022/07/07 04:46:18;;;;;;;;;;;14.50;99.90;;;;;;5053734;28;19944;-71
2022/07/07 04:48:44;;;;;;;;;;;14.50;99.90;;;;;;5053673;28;19912;-72
2022/07/07 04:51:09;;;;;;;;;;;14.50;99.90;;;;;;5069370;28;19931;-71
2022/07/07 04:53:35;;;;;;;;;;;14.60;99.90;;;;;;5073362;28;19908;-71
2022/07/07 04:56:00;;;;;;;;;;;14.60;99.90;;;;;;5073416;28;19908;-70
2022/07/07 04:58:26;;;;;;;;;;;14.60;99.90;;;;;;5073379;28;20364;-70
2022/07/07 05:00:51;;;;;;;;;;;14.60;99.90;;;;;;5073283;28;19904;-70
2022/07/07 05:03:17;;;;;;;;;;;14.60;99.90;;;;;;5056626;28;19916;-70
2022/07/07 05:05:43;;;;;;;;;;;14.70;99.90;;;;;;5053625;28;19905;-70
2022/07/07 05:08:08;;;;;;;;;;;14.70;99.90;;;;;;5057664;28;20371;-70
2022/07/07 05:10:34;;;;;;;;;;;14.70;99.90;;;;;;5057220;28;19940;-69
2022/07/07 05:12:59;;;;;;;;;;;14.70;99.90;;;;;;5057286;28;19928;-68
2022/07/07 05:15:25;;;;;;;;;;;14.70;99.90;;;;;;5057905;28;20261;-69
2022/07/07 05:17:50;;;;;;;;;;;14.70;99.90;;;;;;5074543;28;19908;-68
2022/07/07 05:20:16;;;;;;;;;;;14.70;99.90;;;;;;5077141;28;19905;-69
2022/07/07 05:22:41;;;;;;;;;;;14.80;99.90;;;;;;5077074;28;19958;-68
2022/07/07 05:25:07;;;;;;;;;;;14.80;99.90;;;;;;5109223;28;20000;-68
2022/07/07 05:27:32;;;;;;;;;;;14.70;99.90;;;;;;5076670;28;19904;-69
2022/07/07 05:29:58;;;;;;;;;;;14.80;99.90;;;;;;5076928;28;19909;-69
2022/07/07 05:32:23;;;;;;;;;;;14.80;99.90;;;;;;5075796;28;19904;-69
2022/07/07 05:34:49;;;;;;;;;;;14.90;99.90;;;;;;5056422;28;20006;-69
2022/07/07 05:37:15;;;;;;;;;;;14.90;99.90;;;;;;5056991;28;19948;-71
2022/07/07 05:39:40;;;;;;;;;;;15.00;99.90;;;;;;5056805;28;20014;-72
2022/07/07 05:42:06;;;;;;;;;;;15.00;99.90;;;;;;5056722;28;19954;-72
2022/07/07 05:44:31;;;;;;;;;;;15.10;99.90;;;;;;5056324;28;20353;-71
2022/07/07 05:46:57;;;;;;;;;;;15.20;99.90;;;;;;5056652;28;19995;-72
2022/07/07 05:49:22;;;;;;;;;;;15.30;99.90;;;;;;5058343;28;19908;-71
2022/07/07 05:51:48;;;;;;;;;;;15.40;99.90;;;;;;5076268;28;19998;-72
2022/07/07 05:54:14;;;;;;;;;;;15.50;99.90;;;;;;5076443;28;19957;-71
2022/07/07 05:56:40;;;;;;;;;;;15.60;99.90;;;;;;5076076;28;19933;-71
2022/07/07 05:59:05;;;;;;;;;;;15.70;99.90;;;;;;5076428;28;19999;-72
2022/07/07 06:01:31;;;;;;;;;;;15.70;99.90;;;;;;5076124;28;19911;-72
2022/07/07 06:03:56;;;;;;;;;;;15.80;99.90;;;;;;5076225;28;19905;-71
2022/07/07 06:06:22;;;;;;;;;;;15.80;99.90;;;;;;5073398;28;19915;-71
2022/07/07 06:08:47;;;;;;;;;;;15.80;99.90;;;;;;5056352;28;19913;-71
2022/07/07 06:11:13;;;;;;;;;;;15.90;99.90;;;;;;5055832;28;20076;-71
2022/07/07 06:13:38;;;;;;;;;;;15.90;99.90;;;;;;5055772;28;19958;-71
2022/07/07 06:16:04;;;;;;;;;;;16.00;99.90;;;;;;5055691;28;19916;-70
2022/07/07 06:18:30;;;;;;;;;;;16.00;99.90;;;;;;5055190;28;19909;-71
2022/07/07 06:20:55;;;;;;;;;;;16.00;99.90;;;;;;5060229;28;20348;-71
2022/07/07 06:23:21;;;;;;;;;;;16.10;99.90;;;;;;5075637;28;19904;-71
2022/07/07 06:25:46;;;;;;;;;;;16.10;99.90;;;;;;5075622;28;19905;-71
2022/07/07 06:28:12;;;;;;;;;;;16.10;99.90;;;;;;5075568;28;19939;-72
2022/07/07 06:30:38;;;;;;;;;;;16.10;99.90;;;;;;5075842;28;19908;-72
2022/07/07 06:33:03;;;;;;;;;;;16.20;99.90;;;;;;5076053;28;19912;-72
2022/07/07 06:35:29;;;;;;;;;;;16.20;99.90;;;;;;5075179;28;20276;-71
2022/07/07 06:37:54;;;;;;;;;;;16.30;99.90;;;;;;5068031;28;20003;-71
2022/07/07 06:40:20;;;;;;;;;;;16.40;99.90;;;;;;5055626;28;19940;-72
2022/07/07 06:42:46;;;;;;;;;;;16.40;99.90;;;;;;5055853;28;20356;-71
2022/07/07 06:45:12;;;;;;;;;;;16.40;99.90;;;;;;5055235;28;20004;-71
2022/07/07 06:47:38;;;;;;;;;;;16.50;99.90;;;;;;5055158;28;19915;-72
2022/07/07 06:50:03;;;;;;;;;;;16.50;99.90;;;;;;5055201;28;20249;-72
2022/07/07 06:52:29;;;;;;;;;;;16.60;99.90;;;;;;5055394;28;19905;-71
2022/07/07 06:54:55;;;;;;;;;;;16.60;99.90;;;;;;5066642;28;19955;-70
2022/07/07 06:57:21;;;;;;;;;;;16.70;99.90;;;;;;5075287;28;19904;-71
2022/07/07 06:59:46;;;;;;;;;;;16.80;99.90;;;;;;5074922;28;20318;-71
2022/07/07 07:02:12;;;;;;;;;;;16.80;99.90;;;;;;5074875;28;19912;-71
2022/07/07 07:04:37;;;;;;;;;;;17.00;99.90;;;;;;5074785;28;19908;-71
2022/07/07 07:07:04;;;;;;;;;;;17.10;99.90;;;;;;5073598;28;19904;-71
2022/07/07 07:09:30;;;;;;;;;;;17.20;99.90;;;;;;5075060;28;19991;-71
2022/07/07 07:11:56;;;;;;;;;;;17.30;99.90;;;;;;5058423;28;20002;-71
2022/07/07 07:14:21;;;;;;;;;;;17.40;99.90;;;;;;5053856;28;20261;-71
2022/07/07 07:16:47;;;;;;;;;;;17.50;99.90;;;;;;5054510;28;20030;-71
2022/07/07 07:19:13;;;;;;;;;;;17.60;99.90;;;;;;5054899;28;20345;-71
2022/07/07 07:21:38;;;;;;;;;;;17.60;99.90;;;;;;5054788;28;19927;-71
2022/07/07 07:24:04;;;;;;;;;;;17.70;99.90;;;;;;5054869;28;19904;-72
2022/07/07 07:26:30;;;;;;;;;;;17.70;99.90;;;;;;5054963;28;19929;-71
2022/07/07 07:28:55;;;;;;;;;;;17.70;99.90;;;;;;5055324;28;19959;-71
2022/07/07 07:31:21;;;;;;;;;;;17.70;99.90;;;;;;5054325;28;20003;-71
2022/07/07 07:33:47;;;;;;;;;;;17.60;99.90;;;;;;5054187;28;19959;-71
2022/07/07 07:36:13;;;;;;;;;;;17.70;99.90;;;;;;5054740;28;20395;-71
2022/07/07 07:38:39;;;;;;;;;;;17.70;99.90;;;;;;5054185;28;19905;-71
2022/07/07 07:41:09;;;;;;;;;;;17.70;99.90;;;;;;5054117;28;20319;-71
2022/07/07 07:43:35;;;;;;;;;;;17.60;99.90;;;;;;5056966;28;19916;-71
2022/07/07 07:46:00;;;;;;;;;;;17.70;99.90;;;;;;5074627;28;19911;-71
2022/07/07 07:48:26;;;;;;;;;;;17.80;99.90;;;;;;5074019;28;19949;-72
2022/07/07 07:50:51;;;;;;;;;;;17.90;99.90;;;;;;5074021;28;19949;-71
2022/07/07 07:53:17;;;;;;;;;;;17.90;99.90;;;;;;5073814;28;20289;-71
2022/07/07 07:55:44;;;;;;;;;;;18.00;99.90;;;;;;5106353;28;20392;-71
2022/07/07 07:58:10;;;;;;;;;;;18.00;99.90;;;;;;5073936;28;19905;-71
2022/07/07 08:00:35;;;;;;;;;;;18.10;99.90;;;;;;5067249;28;19914;-71
2022/07/07 08:03:01;;;;;;;;;;;18.20;99.90;;;;;;5053860;28;19912;-71
2022/07/07 08:05:28;;;;;;;;;;;18.20;99.90;;;;;;5053699;28;19954;-70
2022/07/07 08:07:53;;;;;;;;;;;18.20;99.90;;;;;;5054129;28;19911;-71
2022/07/07 08:10:19;;;;;;;;;;;18.20;99.90;;;;;;5054299;28;20003;-71
2022/07/07 08:12:45;;;;;;;;;;;18.30;99.90;;;;;;5053775;28;19905;-71
2022/07/07 08:15:11;;;;;;;;;;;18.20;99.90;;;;;;5053566;28;19909;-71
2022/07/07 08:17:37;;;;;;;;;;;18.30;99.90;;;;;;5060570;28;20295;-71
2022/07/07 08:20:03;;;;;;;;;;;18.40;99.90;;;;;;5073685;28;19911;-71
2022/07/07 08:22:29;;;;;;;;;;;18.40;99.90;;;;;;5073504;28;19938;-71
2022/07/07 08:24:54;;;;;;;;;;;18.40;99.90;;;;;;5106054;28;19905;-71
2022/07/07 08:27:20;;;;;;;;;;;18.50;99.90;;;;;;5073646;28;19944;-71
2022/07/07 08:29:45;;;;;;;;;;;18.50;99.90;;;;;;5073635;28;19905;-71
2022/07/07 08:32:11;;;;;;;;;;;18.60;99.90;;;;;;5073867;28;19948;-71
2022/07/07 08:34:37;;;;;;;;;;;18.70;99.90;;;;;;5071806;28;19919;-71
2022/07/07 08:37:03;;;;;;;;;;;18.70;99.90;;;;;;5074050;28;19915;-71
2022/07/07 08:39:29;;;;;;;;;;;18.80;99.90;;;;;;5074094;28;19904;-71
2022/07/07 08:41:54;;;;;;;;;;;18.70;99.90;;;;;;5077299;28;19912;-71
2022/07/07 08:44:20;;;;;;;;;;;18.70;99.90;;;;;;5077699;28;19904;-71
2022/07/07 08:46:46;;;;;;;;;;;18.70;99.90;;;;;;5110141;28;19904;-71
2022/07/07 08:49:11;;;;;;;;;;;18.70;99.90;;;;;;5077712;28;19911;-71
2022/07/07 08:51:41;;;;;;;;;;;18.70;99.90;;;;;;5076101;28;19914;-71
2022/07/07 08:54:08;;;;;;;;;;;18.80;99.90;;;;;;5077540;28;19904;-71
2022/07/07 08:56:35;;;;;;;;;;;18.70;99.90;;;;;;5075944;28;19908;-71
2022/07/07 08:59:00;;;;;;;;;;;18.70;99.90;;;;;;5077195;28;20307;-71
2022/07/07 09:01:26;;;;;;;;;;;18.60;99.90;;;;;;5077736;28;19904;-71
2022/07/07 09:03:51;;;;;;;;;;;18.50;99.90;;;;;;5077572;28;20356;-71
2022/07/07 09:06:17;;;;;;;;;;;18.50;99.90;;;;;;5077399;28;20022;-71
2022/07/07 09:08:43;;;;;;;;;;;18.50;99.90;;;;;;5075589;28;19916;-71
2022/07/07 09:11:09;;;;;;;;;;;18.40;99.90;;;;;;5076466;28;19998;-71
2022/07/07 09:13:35;;;;;;;;;;;18.40;99.90;;;;;;5077151;28;19997;-71
2022/07/07 09:16:04;;;;;;;;;;;18.40;99.90;;;;;;5077076;28;19908;-71
2022/07/07 09:18:31;;;;;;;;;;;18.30;99.90;;;;;;5076855;28;20335;-71
2022/07/07 09:20:57;;;;;;;;;;;18.30;99.90;;;;;;5077141;28;20012;-71
2022/07/07 09:23:23;;;;;;;;;;;18.20;99.90;;;;;;5109257;28;19904;-71
2022/07/07 09:25:49;;;;;;;;;;;18.20;99.90;;;;;;5075546;28;19999;-70
2022/07/07 09:28:14;;;;;;;;;;;18.20;99.90;;;;;;5076709;28;19939;-71
2022/07/07 09:30:41;;;;;;;;;;;18.20;99.90;;;;;;5076687;28;20406;-70
2022/07/07 09:33:09;;;;;;;;;;;18.20;99.90;;;;;;5076625;28;19911;-71
2022/07/07 09:38:24;;;;;;;;;;;18.30;99.90;;;;;;5077131;28;19911;-70
2022/07/07 09:41:05;;;;;;;;;;;18.30;99.90;;;;;;5076463;28;19904;-70
2022/07/07 09:43:32;;;;;;;;;;;18.30;99.90;;;;;;5056933;28;19932;-70
2022/07/07 09:46:13;;;;;;;;;;;18.20;99.90;;;;;;5056640;28;19987;-70
2022/07/07 09:48:39;;;;;;;;;;;18.20;99.90;;;;;;5055022;28;19909;-70
2022/07/07 09:51:16;;;;;;;;;;;18.20;99.90;;;;;;5056443;28;19905;-70
2022/07/07 09:53:55;;;;;;;;;;;18.20;99.90;;;;;;5055668;28;19904;-69
2022/07/07 09:56:21;;;;;;;;;;;18.20;99.90;;;;;;5056678;28;19913;-70
2022/07/07 09:58:47;;;;;;;;;;;18.20;99.90;;;;;;5057418;28;19916;-69
2022/07/07 10:01:13;;;;;;;;;;;18.20;99.90;;;;;;5056679;28;19905;-70
2022/07/07 10:03:41;;;;;;;;;;;18.20;99.90;;;;;;5055964;28;19905;-70
2022/07/07 10:06:07;;;;;;;;;;;18.10;99.90;;;;;;5054717;28;19911;-70
2022/07/07 10:08:33;;;;;;;;;;;18.00;99.90;;;;;;5055875;28;20007;-70
2022/07/07 10:10:59;;;;;;;;;;;17.90;99.90;;;;;;5056130;28;19916;-69
2022/07/07 10:13:28;;;;;;;;;;;17.80;99.90;;;;;;5056093;28;19911;-70
2022/07/07 10:15:53;;;;;;;;;;;17.80;99.90;;;;;;5067580;28;20345;-70
2022/07/07 10:18:19;;;;;;;;;;;17.90;99.90;;;;;;5075758;28;20042;-70
2022/07/07 10:20:46;;;;;;;;;;;17.80;99.90;;;;;;5075714;28;19904;-70
2022/07/07 10:23:11;;;;;;;;;;;17.80;99.90;;;;;;5075695;28;19986;-69
2022/07/07 10:25:37;;;;;;;;;;;17.80;99.90;;;;;;5075506;28;19910;-69
2022/07/07 10:28:03;;;;;;;;;;;17.80;99.90;;;;;;5076123;28;19904;-69
2022/07/07 10:30:30;;;;;;;;;;;17.90;99.90;;;;;;5074236;28;19935;-69
2022/07/07 10:32:56;;;;;;;;;;;17.90;99.90;;;;;;5076066;28;19970;-70
2022/07/07 10:35:23;;;;;;;;;;;18.00;99.90;;;;;;5075220;28;20328;-70
2022/07/07 10:37:55;;;;;;;;;;;18.00;99.90;;;;;;5075350;28;19970;-70
2022/07/07 10:40:25;;;;;;;;;;;18.10;99.90;;;;;;5075854;28;19904;-70
2022/07/07 10:43:10;;;;;;;;;;;18.20;99.90;;;;;;5075569;28;20402;-70
2022/07/07 10:45:41;;;;;;;;;;;18.20;99.90;;;;;;5101624;28;19916;-69
2022/07/07 10:48:07;;;;;;;;;;;18.20;99.90;;;;;;5075424;28;19904;-69
2022/07/07 10:50:33;;;;;;;;;;;18.10;99.90;;;;;;5075013;28;20284;-69
2022/07/07 10:52:59;;;;;;;;;;;18.00;99.90;;;;;;5075054;28;19909;-69
2022/07/07 10:56:03;;;;;;;;;;;18.00;99.90;;;;;;5074809;28;19908;-69
2022/07/07 10:58:43;;;;;;;;;;;18.00;99.90;;;;;;5052958;28;19916;-70
2022/07/07 11:01:08;;;;;;;;;;;17.90;99.90;;;;;;5052126;28;20011;-69
2022/07/07 11:03:37;;;;;;;;;;;17.80;99.90;;;;;;5065106;28;19955;-69
2022/07/07 11:06:03;;;;;;;;;;;17.80;99.90;;;;;;5074751;28;19910;-70
2022/07/07 11:08:36;;;;;;;;;;;17.80;99.90;;;;;;5074800;28;19998;-70
2022/07/07 11:11:03;;;;;;;;;;;17.70;99.90;;;;;;5074747;28;19958;-70
2022/07/07 11:13:29;;;;;;;;;;;17.60;99.90;;;;;;5074813;28;20346;-69
2022/07/07 11:16:11;;;;;;;;;;;17.50;99.90;;;;;;5105311;28;19913;-69
2022/07/07 11:18:37;;;;;;;;;;;17.40;99.90;;;;;;5054876;28;19988;-70
2022/07/07 11:21:04;;;;;;;;;;;17.40;99.90;;;;;;5053219;28;20035;-69
2022/07/07 11:23:42;;;;;;;;;;;17.20;99.90;;;;;;5054284;28;19962;-69
2022/07/07 11:26:08;;;;;;;;;;;17.20;99.90;;;;;;5054352;28;20371;-70
2022/07/07 11:28:35;;;;;;;;;;;17.00;99.90;;;;;;5054551;28;19912;-69
2022/07/07 11:31:04;;;;;;;;;;;16.80;99.90;;;;;;5054836;28;19904;-69
2022/07/07 11:33:30;;;;;;;;;;;16.80;99.90;;;;;;5059892;28;20256;-70
2022/07/07 11:35:56;;;;;;;;;;;16.60;99.90;;;;;;5074439;28;19920;-70
2022/07/07 11:38:25;;;;;;;;;;;16.50;99.90;;;;;;5107393;28;19975;-70
2022/07/07 11:40:51;;;;;;;;;;;16.40;99.90;;;;;;5074123;28;20387;-69
2022/07/07 11:43:24;;;;;;;;;;;16.30;99.90;;;;;;5073981;28;19904;-68
2022/07/07 11:45:50;;;;;;;;;;;16.20;99.90;;;;;;5106690;28;19911;-67
2022/07/07 11:48:15;;;;;;;;;;;16.20;99.90;;;;;;5074268;28;19904;-67
2022/07/07 11:50:41;;;;;;;;;;;16.10;99.90;;;;;;5072372;28;20360;-67
2022/07/07 11:53:07;;;;;;;;;;;16.10;99.90;;;;;;5074003;28;19908;-67
2022/07/07 11:55:32;;;;;;;;;;;16.00;99.90;;;;;;5073827;28;19908;-68
2022/07/07 11:58:02;;;;;;;;;;;15.90;99.90;;;;;;5074249;28;19908;-67
2022/07/07 12:00:29;;;;;;;;;;;15.90;99.90;;;;;;5073909;28;19913;-67
2022/07/07 12:02:56;;;;;;;;;;;15.80;99.90;;;;;;5073794;28;19983;-67
2022/07/07 12:05:23;;;;;;;;;;;15.90;99.90;;;;;;5074093;28;19904;-67
2022/07/07 12:07:55;;;;;;;;;;;15.90;99.90;;;;;;5072218;28;20379;-68
2022/07/07 12:10:31;;;;;;;;;;;15.90;99.90;;;;;;5073846;28;20368;-67
2022/07/07 12:12:58;;;;;;;;;;;15.90;99.90;;;;;;5074120;28;19904;-67
2022/07/07 12:15:28;;;;;;;;;;;15.90;99.90;;;;;;5073150;28;19908;-67
2022/07/07 12:17:54;;;;;;;;;;;15.90;99.90;;;;;;5073795;28;19905;-67
2022/07/07 12:20:20;;;;;;;;;;;15.90;99.90;;;;;;5073998;28;19912;-67
2022/07/07 12:22:50;;;;;;;;;;;15.90;99.90;;;;;;5073715;28;19904;-67
2022/07/07 12:25:15;;;;;;;;;;;15.90;99.90;;;;;;5095149;28;19909;-67
2022/07/07 12:27:59;;;;;;;;;;;15.90;99.90;;;;;;5069749;28;20008;-67
2022/07/07 12:30:26;;;;;;;;;;;15.90;99.90;;;;;;5053510;28;19911;-67
2022/07/07 12:32:52;;;;;;;;;;;15.90;99.90;;;;;;5053557;28;19908;-67
2022/07/07 12:35:34;;;;;;;;;;;15.90;99.90;;;;;;5053245;28;20083;-67
2022/07/07 12:38:00;;;;;;;;;;;15.90;99.90;;;;;;5052220;28;19934;-67
2022/07/07 12:40:27;;;;;;;;;;;15.90;99.90;;;;;;5053458;28;20300;-67
2022/07/07 12:42:53;;;;;;;;;;;15.90;99.90;;;;;;5054602;28;20314;-67
2022/07/07 12:45:19;;;;;;;;;;;15.90;99.90;;;;;;5053486;28;19958;-68
2022/07/07 12:47:49;;;;;;;;;;;16.00;99.90;;;;;;5054086;28;19908;-68
2022/07/07 12:50:15;;;;;;;;;;;16.10;99.90;;;;;;5072347;28;19908;-68
2022/07/07 12:52:41;;;;;;;;;;;16.10;99.90;;;;;;5073416;28;19904;-68
2022/07/07 12:55:07;;;;;;;;;;;16.20;99.90;;;;;;5073873;28;19930;-68
2022/07/07 12:57:33;;;;;;;;;;;16.20;99.90;;;;;;5073569;28;19958;-68
2022/07/07 12:59:59;;;;;;;;;;;16.20;99.90;;;;;;5073213;28;19905;-68
2022/07/07 13:02:25;;;;;;;;;;;16.20;99.90;;;;;;5070606;28;20006;-68
2022/07/07 13:04:50;;;;;;;;;;;16.10;99.90;;;;;;5053196;28;20387;-68
2022/07/07 13:07:16;;;;;;;;;;;16.00;99.90;;;;;;5066821;28;19905;-68
2022/07/07 13:09:42;;;;;;;;;;;16.10;99.90;;;;;;5071071;28;19909;-68
2022/07/07 13:12:11;;;;;;;;;;;16.10;99.90;;;;;;5073110;28;19908;-68
2022/07/07 13:14:37;;;;;;;;;;;16.10;99.90;;;;;;5072913;28;19999;-68
2022/07/07 13:17:04;;;;;;;;;;;16.20;99.90;;;;;;5073696;28;19999;-68
2022/07/07 13:19:30;;;;;;;;;;;16.20;99.90;;;;;;5071908;28;19965;-68
2022/07/07 13:21:56;;;;;;;;;;;16.40;99.90;;;;;;5073033;28;20000;-68
2022/07/07 13:24:21;;;;;;;;;;;16.50;99.90;;;;;;5073302;28;19940;-68
2022/07/07 13:26:47;;;;;;;;;;;16.70;99.90;;;;;;5105931;28;19934;-68
2022/07/07 13:29:17;;;;;;;;;;;16.80;99.90;;;;;;5076729;28;19905;-68
2022/07/07 13:31:43;;;;;;;;;;;16.80;99.90;;;;;;5076935;28;19908;-68
2022/07/07 13:34:08;;;;;;;;;;;16.90;99.90;;;;;;5076762;28;19916;-68
2022/07/07 13:36:34;;;;;;;;;;;17.00;99.90;;;;;;5076367;28;19912;-68
2022/07/07 13:38:59;;;;;;;;;;;17.00;99.90;;;;;;5076781;28;19904;-68
2022/07/07 13:41:25;;;;;;;;;;;17.00;99.90;;;;;;5076505;28;19904;-68
2022/07/07 13:43:50;;;;;;;;;;;17.00;99.90;;;;;;5076743;28;20364;-68
2022/07/07 13:46:16;;;;;;;;;;;17.10;99.90;;;;;;5076720;28;20368;-68
2022/07/07 13:48:41;;;;;;;;;;;17.10;99.90;;;;;;5076933;28;19952;-68
2022/07/07 13:51:07;;;;;;;;;;;17.10;99.90;;;;;;5076647;28;19909;-68
2022/07/07 13:53:32;;;;;;;;;;;17.10;99.90;;;;;;5072598;28;19909;-68
2022/07/07 13:55:58;;;;;;;;;;;17.00;99.90;;;;;;5056328;28;20271;-68
2022/07/07 13:58:23;;;;;;;;;;;17.00;99.90;;;;;;5056719;28;19905;-68
2022/07/07 14:00:49;;;;;;;;;;;17.00;99.90;;;;;;5056534;28;19988;-68
2022/07/07 14:03:15;;;;;;;;;;;17.00;99.90;;;;;;5056034;28;20357;-68
2022/07/07 14:05:40;;;;;;;;;;;17.00;99.90;;;;;;5064743;28;19908;-68
2022/07/07 14:08:06;;;;;;;;;;;16.90;99.90;;;;;;5076285;28;19946;-68
2022/07/07 14:10:31;;;;;;;;;;;16.80;99.90;;;;;;5075921;28;19953;-69
2022/07/07 14:12:57;;;;;;;;;;;16.80;99.90;;;;;;5076449;28;20360;-68
2022/07/07 14:15:23;;;;;;;;;;;16.70;99.90;;;;;;5075839;28;19908;-68
2022/07/07 14:17:48;;;;;;;;;;;16.60;99.90;;;;;;5075826;28;19940;-68